Terminal Aerodrome Forecast
Issued by NWS

Home | Current Version | Previous Version | Text Only | Print | Product List | Glossary Off
Versions: 1 2 3 4 5 6 7 8 9 10 11 12 13 14 15 16 17

000
FTUS43 KUNR 300500
TAFGCC
TAF
KGCC 300520Z 3006/3106 17012KT P6SM SKC
     FM301700 21011KT P6SM SCT100
     FM302000 34012KT P6SM SCT080 BKN200
     FM310300 32008KT P6SM SCT100 BKN200=

USA.gov is the U.S. government's official web portal to all federal, state and local government web resources and services.